Time;durP1;ratioP1;P1;durP2;ratioP2;P2;SDS_P1;SDS_P2;PMS_P1;PMS_P2;Temp;Humidity;BMP_temperature;BMP_pressure;BME280_temperature;BME280_humidity;BME280_pressure;Samples;Min_cycle;Max_cycle;Signal;HPM_P1;HPM_P2
2022/11/26 00:01:02;;;;;;;12.13;8.10;;;7.10;99.90;;;;;;5109614;28;21936;-77
2022/11/26 00:03:29;;;;;;;25.50;7.50;;;7.10;99.90;;;;;;5112028;28;20958;-79
2022/11/26 00:05:58;;;;;;;12.07;7.57;;;7.10;99.90;;;;;;5098414;28;20549;-78
2022/11/26 00:08:29;;;;;;;11.77;6.90;;;7.10;99.90;;;;;;5099243;28;20457;-80
2022/11/26 00:10:56;;;;;;;23.60;14.27;;;7.10;99.90;;;;;;5098837;28;20871;-79
2022/11/26 00:13:25;;;;;;;18.20;9.37;;;7.10;99.90;;;;;;5099892;28;21018;-80
2022/11/26 00:15:54;;;;;;;16.30;9.23;;;7.10;99.90;;;;;;5099923;28;20557;-80
2022/11/26 00:18:22;;;;;;;16.90;7.93;;;7.10;99.90;;;;;;5099138;28;21000;-79
2022/11/26 00:20:53;;;;;;;20.10;7.87;;;7.10;99.90;;;;;;5101218;28;20812;-80
2022/11/26 00:23:24;;;;;;;13.50;7.57;;;7.10;99.90;;;;;;5117669;28;20445;-80
2022/11/26 00:25:54;;;;;;;17.33;8.33;;;7.10;99.90;;;;;;5119922;28;20477;-80
2022/11/26 00:28:28;;;;;;;15.93;7.73;;;7.10;99.90;;;;;;5102172;28;20460;-80
2022/11/26 00:30:58;;;;;;;11.93;7.10;;;7.10;99.90;;;;;;5114572;28;20512;-79
2022/11/26 00:33:26;;;;;;;14.43;7.77;;;7.10;99.90;;;;;;5112737;28;20456;-80
2022/11/26 00:35:55;;;;;;;12.43;8.03;;;7.00;99.90;;;;;;5120790;28;20494;-79
2022/11/26 00:38:23;;;;;;;20.97;8.27;;;7.00;99.90;;;;;;5111760;28;20553;-80
2022/11/26 00:40:50;;;;;;;14.17;7.03;;;7.00;99.90;;;;;;5102325;28;20449;-80
2022/11/26 00:43:18;;;;;;;18.67;7.53;;;7.00;99.90;;;;;;5110713;28;20515;-79
2022/11/26 00:45:46;;;;;;;15.43;7.70;;;7.00;99.90;;;;;;5116386;28;20466;-80
2022/11/26 00:48:15;;;;;;;13.27;7.63;;;7.10;99.90;;;;;;5109536;28;20527;-81
2022/11/26 00:50:44;;;;;;;15.00;8.00;;;7.20;99.90;;;;;;5122943;28;20445;-80
2022/11/26 00:53:13;;;;;;;23.57;7.53;;;7.20;99.90;;;;;;5119750;28;21007;-80
2022/11/26 00:55:44;;;;;;;12.80;7.23;;;7.10;99.90;;;;;;5121447;28;20921;-79
2022/11/26 00:58:21;;;;;;;13.10;7.23;;;7.00;99.90;;;;;;5108512;28;21032;-79
2022/11/26 01:00:48;;;;;;;15.57;7.37;;;7.00;99.90;;;;;;5120181;28;20528;-79
2022/11/26 01:03:17;;;;;;;20.17;8.10;;;7.00;99.90;;;;;;5115136;28;20544;-79
2022/11/26 01:05:44;;;;;;;12.90;6.57;;;7.00;99.90;;;;;;5108247;28;20537;-79
2022/11/26 01:08:19;;;;;;;14.03;6.83;;;7.00;99.90;;;;;;5120923;28;21007;-79
2022/11/26 01:10:46;;;;;;;20.87;8.10;;;6.90;99.90;;;;;;5109724;28;20437;-79
2022/11/26 01:13:13;;;;;;;14.77;7.73;;;6.90;99.90;;;;;;5106772;28;20509;-79
2022/11/26 01:15:40;;;;;;;12.17;6.20;;;7.00;99.90;;;;;;5106225;28;21005;-79
2022/11/26 01:18:12;;;;;;;17.77;6.43;;;7.00;99.90;;;;;;5124148;28;20484;-79
2022/11/26 01:20:41;;;;;;;15.03;7.17;;;7.00;99.90;;;;;;5126526;28;20447;-79
2022/11/26 01:23:11;;;;;;;19.40;6.53;;;7.00;99.90;;;;;;5107117;28;20509;-79
2022/11/26 01:25:38;;;;;;;12.10;6.67;;;7.00;99.90;;;;;;5101557;28;20470;-80
2022/11/26 01:28:06;;;;;;;18.83;8.10;;;7.10;99.90;;;;;;5118782;28;20451;-80
2022/11/26 01:30:33;;;;;;;17.43;7.60;;;7.20;99.90;;;;;;5122284;28;20444;-80
2022/11/26 01:33:00;;;;;;;14.63;7.30;;;7.10;99.90;;;;;;5120032;28;20511;-80
2022/11/26 01:35:28;;;;;;;17.03;7.30;;;7.20;99.90;;;;;;5122565;28;20479;-80
2022/11/26 01:37:56;;;;;;;13.27;7.47;;;7.30;99.90;;;;;;5106675;28;21062;-80
2022/11/26 01:40:50;;;;;;;18.77;8.33;;;7.30;99.90;;;;;;5102421;28;20477;-80
2022/11/26 01:43:24;;;;;;;15.20;8.27;;;7.40;99.90;;;;;;5099378;28;20822;-80
2022/11/26 01:45:51;;;;;;;19.10;8.23;;;7.40;99.90;;;;;;5101994;28;20557;-81
2022/11/26 01:48:26;;;;;;;18.90;7.97;;;7.50;99.90;;;;;;5117770;28;20461;-81
2022/11/26 01:51:02;;;;;;;13.50;7.93;;;7.60;99.90;;;;;;5122531;28;20447;-81
2022/11/26 01:53:51;;;;;;;14.60;8.43;;;7.70;99.90;;;;;;5104365;28;20521;-81
2022/11/26 01:56:29;;;;;;;18.13;9.97;;;7.80;99.90;;;;;;5113465;28;20471;-80
2022/11/26 01:59:00;;;;;;;13.43;8.20;;;7.90;99.90;;;;;;5097966;28;20452;-81
2022/11/26 02:01:27;;;;;;;12.73;7.03;;;7.90;99.90;;;;;;5114637;28;20464;-81
2022/11/26 02:04:02;;;;;;;15.43;8.83;;;7.90;99.90;;;;;;5107955;28;20454;-81
2022/11/26 02:06:33;;;;;;;12.20;8.30;;;7.90;99.90;;;;;;5106977;28;20480;-81
2022/11/26 02:09:03;;;;;;;16.63;8.33;;;8.00;99.90;;;;;;5102829;28;20537;-81
2022/11/26 02:11:30;;;;;;;12.70;7.90;;;8.00;99.90;;;;;;5114649;28;20450;-79
2022/11/26 02:14:01;;;;;;;17.67;8.23;;;8.10;99.90;;;;;;5114702;28;20472;-80
2022/11/26 02:17:12;;;;;;;17.80;8.63;;;8.10;99.90;;;;;;5114766;28;20911;-81
2022/11/26 02:20:14;;;;;;;13.07;7.00;;;8.00;99.90;;;;;;5057559;28;20448;-80
2022/11/26 02:23:12;;;;;;;15.80;8.27;;;7.90;99.90;;;;;;5018130;28;20453;-81
2022/11/26 02:26:00;;;;;;;18.63;7.07;;;7.80;99.90;;;;;;5085450;28;20545;-81
2022/11/26 02:28:48;;;;;;;16.17;7.50;;;7.70;99.90;;;;;;5099391;28;20456;-80
2022/11/26 02:31:23;;;;;;;15.27;7.80;;;7.70;99.90;;;;;;5114211;28;20528;-81
2022/11/26 02:33:54;;;;;;;15.47;7.03;;;7.70;99.90;;;;;;5110779;28;20450;-81
2022/11/26 02:36:25;;;;;;;13.10;6.57;;;7.80;99.90;;;;;;5100233;28;20537;-80
2022/11/26 02:38:52;;;;;;;13.93;7.13;;;7.80;99.90;;;;;;5110897;28;20468;-80
2022/11/26 02:41:19;;;;;;;14.83;6.63;;;7.70;99.90;;;;;;5102860;28;20485;-81
2022/11/26 02:43:47;;;;;;;14.00;7.10;;;7.60;99.90;;;;;;5113644;28;20512;-80
2022/11/26 02:46:20;;;;;;;16.70;8.20;;;7.60;99.90;;;;;;5124573;28;20565;-80
2022/11/26 02:48:50;;;;;;;14.93;7.10;;;7.60;99.90;;;;;;5116263;28;21141;-80
2022/11/26 02:51:23;;;;;;;12.53;6.80;;;7.50;99.90;;;;;;5111929;28;20449;-81
2022/11/26 02:53:52;;;;;;;13.43;6.67;;;7.50;99.90;;;;;;5100544;28;20441;-80
2022/11/26 02:56:22;;;;;;;13.07;6.80;;;7.50;99.90;;;;;;5122846;28;20467;-80
2022/11/26 02:58:50;;;;;;;21.63;6.70;;;7.40;99.90;;;;;;5104320;28;20548;-80
2022/11/26 03:01:27;;;;;;;12.80;6.77;;;7.40;99.90;;;;;;5105072;28;20442;-81
2022/11/26 03:03:57;;;;;;;15.80;8.13;;;7.30;99.90;;;;;;5124528;28;20440;-81
2022/11/26 03:06:27;;;;;;;15.40;6.93;;;7.20;99.90;;;;;;5115769;22;20499;-82
2022/11/26 03:08:54;;;;;;;12.77;6.47;;;7.20;99.90;;;;;;5056077;28;20447;-83
2022/11/26 03:11:21;;;;;;;13.63;7.20;;;7.10;99.90;;;;;;5056875;28;20455;-83
2022/11/26 03:13:49;;;;;;;16.40;6.87;;;7.10;99.90;;;;;;5036416;28;20528;-81
2022/11/26 03:16:16;;;;;;;11.47;6.07;;;7.00;99.90;;;;;;5037205;28;20927;-83
2022/11/26 03:18:44;;;;;;;16.13;6.37;;;7.00;99.90;;;;;;5055312;28;20486;-82
2022/11/26 03:21:11;;;;;;;14.33;6.90;;;7.00;99.90;;;;;;5057059;28;20482;-82
2022/11/26 03:23:37;;;;;;;14.20;6.33;;;6.90;99.90;;;;;;5060605;28;20430;-81
2022/11/26 03:26:04;;;;;;;16.33;6.30;;;6.90;99.90;;;;;;5075264;28;20615;-82
2022/11/26 03:28:31;;;;;;;12.97;7.03;;;6.90;99.90;;;;;;5073846;28;20526;-81
2022/11/26 03:30:58;;;;;;;12.53;5.80;;;6.80;99.90;;;;;;5075037;28;20511;-82
2022/11/26 03:33:25;;;;;;;15.20;6.27;;;6.80;99.90;;;;;;5074303;28;20455;-82
2022/11/26 03:35:53;;;;;;;15.07;7.03;;;6.80;99.90;;;;;;5062174;28;20447;-82
2022/11/26 03:38:20;;;;;;;21.13;7.90;;;6.70;99.90;;;;;;5061220;28;20496;-83
2022/11/26 03:40:56;;;;;;;14.90;6.20;;;6.60;99.90;;;;;;5059514;28;20455;-82
2022/11/26 03:43:22;;;;;;;11.77;6.53;;;6.60;99.90;;;;;;5058458;28;20959;-83
2022/11/26 03:45:49;;;;;;;10.30;6.67;;;6.60;99.90;;;;;;5058282;28;20485;-82
2022/11/26 03:48:16;;;;;;;13.40;6.00;;;6.50;99.90;;;;;;5056727;28;20539;-82
2022/11/26 03:50:43;;;;;;;8.40;5.40;;;6.50;99.90;;;;;;5058306;28;20458;-83
2022/11/26 03:53:11;;;;;;;11.97;5.77;;;6.40;99.90;;;;;;5056965;28;20461;-83
2022/11/26 03:55:38;;;;;;;11.47;6.30;;;6.40;99.90;;;;;;5057634;28;20450;-82
2022/11/26 03:58:04;;;;;;;9.93;7.17;;;6.40;99.90;;;;;;5056094;28;20490;-82
2022/11/26 04:00:31;;;;;;;15.27;5.90;;;6.40;99.90;;;;;;5056921;28;20466;-82
2022/11/26 04:02:58;;;;;;;10.77;5.80;;;6.40;99.90;;;;;;5056229;28;20454;-83
2022/11/26 04:05:25;;;;;;;16.27;6.97;;;6.30;99.90;;;;;;5057180;28;20455;-82
2022/11/26 04:07:52;;;;;;;11.80;6.57;;;6.30;99.90;;;;;;5056066;28;20479;-83
2022/11/26 04:10:20;;;;;;;21.40;6.83;;;6.30;99.90;;;;;;5056627;28;20487;-83
2022/11/26 04:12:47;;;;;;;16.30;5.90;;;6.30;99.90;;;;;;5055822;28;20530;-82
2022/11/26 04:15:14;;;;;;;12.97;6.40;;;6.30;99.90;;;;;;5056751;28;20454;-82
2022/11/26 04:17:40;;;;;;;15.77;7.07;;;6.30;99.90;;;;;;5056476;28;20483;-82
2022/11/26 04:20:08;;;;;;;19.73;6.40;;;6.30;99.90;;;;;;5056080;28;20451;-83
2022/11/26 04:22:35;;;;;;;16.33;7.40;;;6.30;99.90;;;;;;5056160;28;20554;-82
2022/11/26 04:25:02;;;;;;;14.70;7.90;;;6.30;99.90;;;;;;5055826;28;20451;-82
2022/11/26 04:27:31;;;;;;;20.10;7.90;;;6.30;99.90;;;;;;5055834;28;20562;-82
2022/11/26 04:29:58;;;;;;;12.50;7.00;;;6.30;99.90;;;;;;5056246;28;20826;-82
2022/11/26 04:32:25;;;;;;;18.03;8.27;;;6.30;99.90;;;;;;5056171;28;20518;-82
2022/11/26 04:34:51;;;;;;;14.03;7.07;;;6.30;99.90;;;;;;5054902;28;21117;-82
2022/11/26 04:37:18;;;;;;;22.23;8.70;;;6.30;99.90;;;;;;5056060;28;20491;-82
2022/11/26 04:39:46;;;;;;;23.57;9.87;;;6.30;99.90;;;;;;5055438;28;20885;-81
2022/11/26 04:42:13;;;;;;;19.70;8.90;;;6.30;99.90;;;;;;5055126;28;20893;-81
2022/11/26 04:44:41;;;;;;;20.37;9.77;;;6.30;99.90;;;;;;5055460;28;20534;-82
2022/11/26 04:47:08;;;;;;;16.03;8.83;;;6.30;99.90;;;;;;5055018;28;20477;-82
2022/11/26 04:49:35;;;;;;;13.33;7.97;;;6.20;99.90;;;;;;5054903;28;20504;-82
2022/11/26 04:52:02;;;;;;;14.43;7.90;;;6.20;99.90;;;;;;5054922;28;20489;-81
2022/11/26 04:54:29;;;;;;;18.37;8.70;;;6.20;99.90;;;;;;5055165;28;21038;-82
2022/11/26 04:56:55;;;;;;;16.93;9.20;;;6.20;99.90;;;;;;5054485;28;20476;-81
2022/11/26 04:59:22;;;;;;;18.37;9.63;;;6.20;99.90;;;;;;5055168;28;20481;-81
2022/11/26 05:01:50;;;;;;;12.53;8.47;;;6.20;99.90;;;;;;5072600;28;20474;-81
2022/11/26 05:04:17;;;;;;;19.53;9.07;;;6.10;99.90;;;;;;5072089;28;20486;-81
2022/11/26 05:06:44;;;;;;;16.00;9.50;;;6.10;99.90;;;;;;5064599;28;20565;-82
2022/11/26 05:09:11;;;;;;;22.83;9.00;;;6.10;99.90;;;;;;5055160;28;20882;-82
2022/11/26 05:11:38;;;;;;;17.83;10.27;;;6.10;99.90;;;;;;5054393;28;21001;-82
2022/11/26 05:14:04;;;;;;;17.00;9.47;;;6.10;99.90;;;;;;5054836;28;20457;-82
2022/11/26 05:16:31;;;;;;;18.17;9.70;;;6.10;99.90;;;;;;5055684;28;20475;-84
2022/11/26 05:18:59;;;;;;;15.23;10.40;;;6.20;99.90;;;;;;5054486;28;20565;-83
2022/11/26 05:21:26;;;;;;;15.43;8.87;;;6.20;99.90;;;;;;5054443;28;20456;-82
2022/11/26 05:23:53;;;;;;;14.63;8.67;;;6.30;99.90;;;;;;5054588;28;20828;-82
2022/11/26 05:26:20;;;;;;;16.33;9.10;;;6.30;99.90;;;;;;5054506;28;20482;-83
2022/11/26 05:28:46;;;;;;;17.73;8.60;;;6.30;99.90;;;;;;5055196;28;20444;-80
2022/11/26 05:31:13;;;;;;;15.57;9.23;;;6.30;99.90;;;;;;5053951;28;20451;-82
2022/11/26 05:33:40;;;;;;;21.10;9.63;;;6.20;99.90;;;;;;5054452;28;20978;-82
2022/11/26 05:36:08;;;;;;;14.43;8.67;;;6.10;99.90;;;;;;5054249;28;20480;-83
2022/11/26 05:38:35;;;;;;;27.43;9.67;;;6.10;99.90;;;;;;5054383;28;20491;-82
2022/11/26 05:41:02;;;;;;;21.27;9.50;;;6.10;99.90;;;;;;5054106;28;20455;-81
2022/11/26 05:43:29;;;;;;;17.27;8.23;;;6.10;99.90;;;;;;5054524;28;20450;-82
2022/11/26 05:45:56;;;;;;;18.40;8.37;;;6.10;99.90;;;;;;5053818;28;20441;-81
2022/11/26 05:48:23;;;;;;;17.73;7.37;;;6.00;99.90;;;;;;5054198;28;20454;-81
2022/11/26 05:50:56;;;;;;;16.53;8.60;;;6.00;99.90;;;;;;5053955;28;20451;-81
2022/11/26 05:53:24;;;;;;;14.90;8.40;;;6.00;99.90;;;;;;5034200;28;20459;-80
2022/11/26 05:55:51;;;;;;;15.70;7.77;;;6.00;99.90;;;;;;5035116;28;20458;-83
2022/11/26 05:58:18;;;;;;;14.27;8.60;;;6.00;99.90;;;;;;5053679;28;20476;-81
2022/11/26 06:00:45;;;;;;;15.70;7.20;;;6.00;99.90;;;;;;5053953;28;20473;-82
2022/11/26 06:03:12;;;;;;;20.50;8.97;;;6.00;99.90;;;;;;5053426;28;20461;-81
2022/11/26 06:05:39;;;;;;;22.83;10.03;;;5.90;99.90;;;;;;5055034;28;20451;-80
2022/11/26 06:08:06;;;;;;;20.33;9.43;;;5.90;99.90;;;;;;5053996;28;20481;-80
2022/11/26 06:10:34;;;;;;;18.00;8.13;;;5.90;99.90;;;;;;5054513;28;20833;-81
2022/11/26 06:13:01;;;;;;;12.10;7.97;;;5.90;99.90;;;;;;5054429;28;20452;-82
2022/11/26 06:15:27;;;;;;;14.07;8.03;;;5.90;99.90;;;;;;5055287;28;20457;-81
2022/11/26 06:17:54;;;;;;;19.03;7.83;;;5.90;99.90;;;;;;5057933;28;20497;-82
2022/11/26 06:20:21;;;;;;;21.13;9.40;;;5.80;99.90;;;;;;5058650;28;20451;-81
2022/11/26 06:22:48;;;;;;;15.70;8.77;;;5.80;99.90;;;;;;5058561;28;20565;-81
2022/11/26 06:25:15;;;;;;;17.00;10.10;;;5.80;99.90;;;;;;5060186;28;20457;-81
2022/11/26 06:27:43;;;;;;;19.63;8.77;;;5.80;99.90;;;;;;5059516;28;20485;-81
2022/11/26 06:30:11;;;;;;;27.00;9.57;;;5.80;99.90;;;;;;5058854;28;20973;-80
2022/11/26 06:32:38;;;;;;;14.83;8.80;;;5.80;99.90;;;;;;5059332;28;20458;-81
2022/11/26 06:35:06;;;;;;;14.20;9.63;;;5.80;99.90;;;;;;5059958;28;20990;-81
2022/11/26 06:37:33;;;;;;;21.00;10.80;;;5.80;99.90;;;;;;5059393;28;20546;-80
2022/11/26 06:39:59;;;;;;;23.90;10.80;;;5.80;99.90;;;;;;5059312;28;20460;-80
2022/11/26 06:42:26;;;;;;;18.07;9.80;;;5.80;99.90;;;;;;5060388;28;20458;-81
2022/11/26 06:44:54;;;;;;;23.93;10.80;;;5.80;99.90;;;;;;5059259;28;20870;-81
2022/11/26 06:47:21;;;;;;;18.87;10.60;;;5.80;99.90;;;;;;5057030;28;20474;-81
2022/11/26 06:49:48;;;;;;;14.17;10.27;;;5.80;99.90;;;;;;5059280;28;20447;-81
2022/11/26 06:52:15;;;;;;;19.73;10.30;;;5.80;99.90;;;;;;5059901;28;20865;-82
2022/11/26 06:54:41;;;;;;;16.20;9.43;;;5.80;99.90;;;;;;5059704;28;20458;-81
2022/11/26 06:57:08;;;;;;;16.77;9.80;;;5.80;99.90;;;;;;5060188;28;20848;-81
2022/11/26 06:59:35;;;;;;;18.33;10.50;;;5.80;99.90;;;;;;5059488;28;20488;-80
2022/11/26 07:02:03;;;;;;;20.67;11.50;;;5.80;99.90;;;;;;5060383;28;20454;-80
2022/11/26 07:04:30;;;;;;;17.03;10.50;;;5.80;99.90;;;;;;5059629;28;20451;-81
2022/11/26 07:06:57;;;;;;;23.13;10.27;;;5.80;99.90;;;;;;5058990;28;20554;-81
2022/11/26 07:09:24;;;;;;;18.27;9.40;;;5.80;99.90;;;;;;5059263;28;20458;-80
2022/11/26 07:11:50;;;;;;;17.57;8.70;;;5.80;99.90;;;;;;5059241;28;20450;-81
2022/11/26 07:14:17;;;;;;;20.40;10.13;;;5.90;99.90;;;;;;5059064;28;20443;-80
2022/11/26 07:16:44;;;;;;;15.80;10.10;;;5.90;99.90;;;;;;5057508;28;20489;-80
2022/11/26 07:19:14;;;;;;;15.20;10.40;;;5.90;99.90;;;;;;5057497;28;20517;-80
2022/11/26 07:21:41;;;;;;;16.30;9.70;;;5.80;99.90;;;;;;5057751;28;20454;-80
2022/11/26 07:24:08;;;;;;;16.67;10.13;;;5.90;99.90;;;;;;5058109;28;20448;-80
2022/11/26 07:26:35;;;;;;;22.40;11.80;;;5.80;99.90;;;;;;5058204;28;20479;-81
2022/11/26 07:29:01;;;;;;;18.00;9.30;;;5.90;99.90;;;;;;5058233;28;20535;-81
2022/11/26 07:31:28;;;;;;;18.43;10.13;;;5.90;99.90;;;;;;5058447;28;20518;-81
2022/11/26 07:33:56;;;;;;;16.17;9.40;;;6.00;99.90;;;;;;5058407;28;20485;-80
2022/11/26 07:36:26;;;;;;;17.60;9.33;;;6.00;99.90;;;;;;5058818;28;20542;-81
2022/11/26 07:38:54;;;;;;;15.57;10.10;;;6.10;99.90;;;;;;5058246;28;20488;-81
2022/11/26 07:41:21;;;;;;;20.70;10.90;;;6.10;99.90;;;;;;5059121;28;20502;-81
2022/11/26 07:43:48;;;;;;;19.90;10.60;;;6.20;99.90;;;;;;5058273;28;20466;-80
2022/11/26 07:46:17;;;;;;;15.73;8.80;;;6.20;99.90;;;;;;5055446;28;20482;-81
2022/11/26 07:48:45;;;;;;;18.93;10.80;;;6.30;99.90;;;;;;5056792;28;20457;-81
2022/11/26 07:51:17;;;;;;;22.77;10.43;;;6.40;99.90;;;;;;5056887;28;20461;-79
2022/11/26 07:53:45;;;;;;;24.73;10.20;;;6.40;99.90;;;;;;5041254;28;20525;-81
2022/11/26 07:56:12;;;;;;;15.13;8.60;;;6.50;99.90;;;;;;5057070;28;20466;-79
2022/11/26 07:58:39;;;;;;;18.80;9.93;;;6.60;99.90;;;;;;5057117;28;20476;-81
2022/11/26 08:01:10;;;;;;;20.33;10.10;;;6.60;99.90;;;;;;5058324;28;20920;-82
2022/11/26 08:03:38;;;;;;;15.30;8.00;;;6.70;99.90;;;;;;5057294;28;20916;-82
2022/11/26 08:06:07;;;;;;;25.77;9.60;;;6.80;99.90;;;;;;5050528;28;20828;-81
2022/11/26 08:08:34;;;;;;;16.03;9.07;;;6.90;99.90;;;;;;5057824;28;21017;-82
2022/11/26 08:11:03;;;;;;;20.77;9.63;;;6.90;99.90;;;;;;5058191;28;20451;-82
2022/11/26 08:13:31;;;;;;;16.57;10.27;;;7.00;99.90;;;;;;5037717;28;20455;-81
2022/11/26 08:15:57;;;;;;;17.00;9.77;;;7.10;99.90;;;;;;5038118;28;20465;-81
2022/11/26 08:18:24;;;;;;;17.27;8.67;;;7.20;99.90;;;;;;5056021;28;20577;-81
2022/11/26 08:20:55;;;;;;;19.53;9.10;;;7.20;99.90;;;;;;5057867;28;20451;-82
2022/11/26 08:23:22;;;;;;;18.37;9.43;;;7.30;99.90;;;;;;5057724;28;20466;-80
2022/11/26 08:25:49;;;;;;;17.53;9.17;;;7.30;99.90;;;;;;5057997;28;20455;-80
2022/11/26 08:28:17;;;;;;;17.33;9.40;;;7.30;99.90;;;;;;5057997;28;20466;-82
2022/11/26 08:30:44;;;;;;;19.00;8.30;;;7.40;99.90;;;;;;5058269;28;20452;-81
2022/11/26 08:33:11;;;;;;;22.27;9.53;;;7.50;99.90;;;;;;5056780;28;20448;-80
2022/11/26 08:35:38;;;;;;;20.97;8.57;;;7.50;99.90;;;;;;5056236;28;20524;-81
2022/11/26 08:38:05;;;;;;;21.77;9.17;;;7.60;99.90;;;;;;5057324;28;21045;-81
2022/11/26 08:40:32;;;;;;;23.53;9.37;;;7.60;99.90;;;;;;5057493;28;20446;-82
2022/11/26 08:42:58;;;;;;;20.47;9.37;;;7.60;99.90;;;;;;5057719;28;20463;-80
2022/11/26 08:45:27;;;;;;;17.20;8.10;;;7.70;99.90;;;;;;5065718;28;20452;-80
2022/11/26 08:47:54;;;;;;;21.60;8.23;;;7.80;99.90;;;;;;5059318;28;20483;-80
2022/11/26 08:50:21;;;;;;;18.47;8.80;;;7.70;99.90;;;;;;5060727;28;20446;-80
2022/11/26 08:52:47;;;;;;;18.77;8.37;;;7.70;99.90;;;;;;5059004;28;20479;-79
2022/11/26 08:55:14;;;;;;;19.93;8.00;;;7.80;99.90;;;;;;5062815;28;20777;-81
2022/11/26 08:57:41;;;;;;;15.20;8.10;;;7.90;99.90;;;;;;5061569;28;20470;-80
2022/11/26 09:00:09;;;;;;;13.73;6.77;;;7.90;99.90;;;;;;5060594;28;20482;-81
2022/11/26 09:02:37;;;;;;;18.80;7.70;;;8.00;99.90;;;;;;5063618;28;20508;-80
2022/11/26 09:05:04;;;;;;;17.03;7.87;;;8.10;99.90;;;;;;5062142;28;20536;-81
2022/11/26 09:07:31;;;;;;;16.43;7.40;;;8.10;99.90;;;;;;5099335;22;20548;-80
2022/11/26 09:09:58;;;;;;;12.90;6.20;;;8.20;99.90;;;;;;5100703;28;20443;-80
2022/11/26 09:12:25;;;;;;;15.50;6.70;;;8.20;99.90;;;;;;5103570;28;20469;-81
2022/11/26 09:14:52;;;;;;;18.47;8.30;;;8.30;99.90;;;;;;5111325;28;20482;-82
2022/11/26 09:17:19;;;;;;;12.70;7.77;;;8.30;99.90;;;;;;5113574;28;20493;-82
2022/11/26 09:19:47;;;;;;;18.90;7.50;;;8.30;99.90;;;;;;5122685;28;20524;-83
2022/11/26 09:22:14;;;;;;;16.53;6.33;;;8.20;99.90;;;;;;5122347;28;20457;-80
2022/11/26 09:24:41;;;;;;;19.53;7.87;;;8.30;99.90;;;;;;5122641;27;20452;-81
2022/11/26 09:27:10;;;;;;;16.23;7.37;;;8.40;99.90;;;;;;5122573;28;20532;-81
2022/11/26 09:29:37;;;;;;;17.23;7.17;;;8.50;99.90;;;;;;5136705;27;20467;-81
2022/11/26 09:32:04;;;;;;;14.53;7.43;;;8.50;99.90;;;;;;5143555;27;20532;-85
2022/11/26 09:34:31;;;;;;;14.80;6.10;;;8.60;99.90;;;;;;5129752;27;20455;-82
2022/11/26 09:36:59;;;;;;;12.47;5.80;;;8.70;99.90;;;;;;5121270;28;20531;-82
2022/11/26 09:39:26;;;;;;;17.97;6.80;;;8.70;99.90;;;;;;5130868;28;20561;-82
2022/11/26 09:42:00;;;;;;;15.80;7.37;;;8.70;99.90;;;;;;5142855;28;20450;-84
2022/11/26 09:44:43;;;;;;;19.23;6.67;;;8.70;99.90;;;;;;5129184;28;20532;-84
2022/11/26 09:47:14;;;;;;;15.97;7.30;;;8.80;99.90;;;;;;5123733;28;20550;-85
2022/11/26 09:49:53;;;;;;;16.00;6.17;;;8.80;99.90;;;;;;5127005;28;20470;-85
2022/11/26 09:52:24;;;;;;;12.33;5.30;;;8.90;99.90;;;;;;5126055;28;20496;-86
2022/11/26 09:54:54;;;;;;;14.40;6.00;;;9.00;99.90;;;;;;5140017;27;20480;-78
2022/11/26 09:57:28;;;;;;;14.63;6.00;;;9.00;99.90;;;;;;5126974;27;20579;-82
2022/11/26 09:59:56;;;;;;;14.05;5.75;;;9.20;99.90;;;;;;5136582;27;20472;-84
2022/11/26 10:02:24;;;;;;;11.77;5.73;;;9.30;99.90;;;;;;5117628;27;20288;-79
2022/11/26 10:04:51;;;;;;;15.23;5.30;;;9.40;99.90;;;;;;5131915;27;20504;-82
2022/11/26 10:07:40;;;;;;;10.83;5.27;;;9.60;99.90;;;;;;5125708;27;20482;-82
2022/11/26 10:10:16;;;;;;;14.43;4.83;;;9.80;99.90;;;;;;5134938;27;20918;-81
2022/11/26 10:12:54;;;;;;;9.83;4.37;;;10.00;99.90;;;;;;5142014;27;20451;-81
2022/11/26 10:15:31;;;;;;;7.77;4.30;;;10.00;99.90;;;;;;5140091;27;20455;-85
2022/11/26 10:18:07;;;;;;;9.20;4.20;;;10.10;99.90;;;;;;5123705;27;20489;-83
2022/11/26 10:20:53;;;;;;;9.80;4.50;;;10.30;99.90;;;;;;5139563;27;20512;-81
2022/11/26 10:23:27;;;;;;;14.57;4.47;;;10.40;99.90;;;;;;5140052;27;20443;-85
2022/11/26 10:25:58;;;;;;;7.90;3.40;;;10.50;99.90;;;;;;5121277;27;20451;-81
2022/11/26 10:28:29;;;;;;;14.97;5.00;;;10.60;99.90;;;;;;5119854;28;20480;-81
2022/11/26 10:30:58;;;;;;;11.10;3.77;;;10.70;99.90;;;;;;5142495;27;20534;-82
2022/11/26 10:33:30;;;;;;;11.43;4.10;;;10.80;99.90;;;;;;5134113;27;20445;-82
2022/11/26 10:35:56;;;;;;;8.67;3.47;;;10.90;99.90;;;;;;5121393;28;20451;-81
2022/11/26 10:38:25;;;;;;;10.90;3.23;;;11.10;99.90;;;;;;5119298;27;20468;-82
2022/11/26 10:40:54;;;;;;;7.67;3.03;;;11.20;99.90;;;;;;5127628;28;20476;-84
2022/11/26 10:43:23;;;;;;;10.77;4.07;;;11.20;99.90;;;;;;5129460;27;20531;-82
2022/11/26 10:45:52;;;;;;;7.57;3.80;;;11.20;99.90;;;;;;5122895;27;20453;-82
2022/11/26 10:48:25;;;;;;;16.13;4.70;;;11.30;99.90;;;;;;5125825;27;20510;-84
2022/11/26 10:50:57;;;;;;;9.93;3.67;;;11.30;99.90;;;;;;5127043;28;20454;-83
2022/11/26 10:53:28;;;;;;;10.17;3.60;;;11.40;99.90;;;;;;5123709;27;20476;-81
2022/11/26 10:55:57;;;;;;;18.97;9.37;;;11.40;99.90;;;;;;5120586;28;20487;-82
2022/11/26 10:58:26;;;;;;;10.20;4.00;;;11.60;99.90;;;;;;5116590;27;20503;-82
2022/11/26 11:00:58;;;;;;;6.67;2.83;;;11.70;99.90;;;;;;5118444;28;20483;-82
2022/11/26 11:03:27;;;;;;;9.67;3.10;;;11.70;99.90;;;;;;5118574;27;20441;-81
2022/11/26 11:06:13;;;;;;;8.73;3.57;;;12.10;99.90;;;;;;5116128;28;20535;-82
2022/11/26 11:08:41;;;;;;;11.60;4.50;;;12.30;99.90;;;;;;5116269;27;21004;-81
2022/11/26 11:11:19;;;;;;;8.27;3.80;;;12.60;99.90;;;;;;5117460;28;20448;-81
2022/11/26 11:13:47;;;;;;;7.23;2.77;;;13.10;99.90;;;;;;5118034;27;20447;-82
2022/11/26 11:16:16;;;;;;;8.93;4.07;;;13.50;99.90;;;;;;5118292;27;21009;-80
2022/11/26 11:18:49;;;;;;;11.13;2.77;;;13.80;99.90;;;;;;5116801;28;20841;-80
2022/11/26 11:21:19;;;;;;;9.63;3.33;;;13.90;99.90;;;;;;5115864;27;20526;-80
2022/11/26 11:23:47;;;;;;;11.63;3.80;;;14.00;99.90;;;;;;5116429;28;20442;-81
2022/11/26 11:26:19;;;;;;;14.10;4.40;;;13.70;99.90;;;;;;5115249;28;20551;-81
2022/11/26 11:28:49;;;;;;;12.00;3.40;;;13.70;99.90;;;;;;5113026;28;20495;-80
2022/11/26 11:31:17;;;;;;;10.63;3.30;;;13.70;99.90;;;;;;5116022;28;20483;-81
2022/11/26 11:33:44;;;;;;;7.90;2.43;;;13.50;99.90;;;;;;5117292;27;20449;-82
2022/11/26 11:36:24;;;;;;;9.63;3.47;;;13.30;99.90;;;;;;5117566;28;20436;-81
2022/11/26 11:38:54;;;;;;;8.30;2.60;;;13.10;99.90;;;;;;5115999;28;20446;-80
2022/11/26 11:41:39;;;;;;;10.23;3.37;;;13.50;99.90;;;;;;5117541;28;20553;-82
2022/11/26 11:44:15;;;;;;;11.60;3.27;;;13.70;99.90;;;;;;5117352;27;20441;-82
2022/11/26 11:47:19;;;;;;;8.50;3.03;;;13.80;99.90;;;;;;5114484;28;20466;-81
2022/11/26 11:49:56;;;;;;;11.87;4.03;;;13.90;99.90;;;;;;5114701;27;20829;-81
2022/11/26 11:52:34;;;;;;;8.07;3.70;;;13.80;99.90;;;;;;5115716;27;20452;-78
2022/11/26 11:55:15;;;;;;;8.33;3.33;;;13.80;99.90;;;;;;5120491;28;20539;-79
2022/11/26 11:57:53;;;;;;;8.90;2.83;;;13.90;99.90;;;;;;5122277;27;20459;-79
2022/11/26 12:00:23;;;;;;;17.30;4.20;;;13.60;99.90;;;;;;5114023;28;20572;-80
2022/11/26 12:03:20;;;;;;;10.30;3.67;;;13.60;99.90;;;;;;5113857;27;20543;-80
2022/11/26 12:06:09;;;;;;;10.30;3.30;;;13.60;99.90;;;;;;5090266;28;20807;-81
2022/11/26 12:08:48;;;;;;;9.93;3.67;;;13.50;99.90;;;;;;5114157;28;20544;-80
2022/11/26 12:11:31;;;;;;;13.77;4.37;;;13.40;99.90;;;;;;5114208;27;20459;-81
2022/11/26 12:14:03;;;;;;;14.37;3.80;;;13.40;99.90;;;;;;5111297;28;20892;-80
2022/11/26 12:16:35;;;;;;;13.10;3.70;;;13.30;99.90;;;;;;5113001;27;20531;-80
2022/11/26 12:19:06;;;;;;;7.93;3.00;;;13.20;99.90;;;;;;5112276;28;20529;-81
2022/11/26 12:21:40;;;;;;;10.90;3.10;;;13.30;99.90;;;;;;5112269;27;21016;-80
2022/11/26 12:24:13;;;;;;;12.10;3.50;;;13.10;99.90;;;;;;5111651;28;20432;-79
2022/11/26 12:26:46;;;;;;;8.67;3.23;;;13.20;99.90;;;;;;5109774;27;20534;-81
2022/11/26 12:29:21;;;;;;;9.27;3.80;;;13.30;99.90;;;;;;5112132;28;20471;-80
2022/11/26 12:31:52;;;;;;;9.83;3.40;;;13.30;99.90;;;;;;5110859;28;20456;-80
2022/11/26 12:34:28;;;;;;;11.70;3.50;;;13.00;99.90;;;;;;5109248;28;20483;-79
2022/11/26 12:36:59;;;;;;;7.07;2.50;;;13.10;99.90;;;;;;5111438;27;20858;-80
2022/11/26 12:39:39;;;;;;;14.13;3.47;;;13.10;99.90;;;;;;5113556;28;20427;-79
2022/11/26 12:42:16;;;;;;;12.50;3.63;;;13.10;99.90;;;;;;5116768;27;21057;-80
2022/11/26 12:44:48;;;;;;;10.13;4.33;;;13.00;99.90;;;;;;5113644;27;20453;-80
2022/11/26 12:47:22;;;;;;;13.70;3.70;;;13.10;99.90;;;;;;5114039;27;20521;-80
2022/11/26 12:50:03;;;;;;;7.50;2.60;;;13.10;99.90;;;;;;5116895;28;20466;-80
2022/11/26 12:52:38;;;;;;;12.77;3.27;;;12.70;99.90;;;;;;5117084;28;20500;-80
2022/11/26 12:55:17;;;;;;;16.10;3.83;;;12.70;99.90;;;;;;5119171;27;20826;-80
2022/11/26 12:57:52;;;;;;;11.07;2.80;;;12.80;99.90;;;;;;5125980;27;20476;-80
2022/11/26 13:00:21;;;;;;;14.20;3.13;;;12.60;99.90;;;;;;5120149;28;20485;-81